Sullivan, IL

10:19 AM CDT on September 30, 2016 (GMT -0500)
West Okaw River Valley | | Change Station

Elev 656 ft 39.60 °N, 88.71 °W | Updated 0 second ago

Light Rain
Light Rain
61.1 °F
Feels Like 61.1 °F
N
9.0
Wind Variable Wind from North
Gusts 9.0 mph

Today
High -- | Low -- °F
--% Chance of Precip.
Yesterday
High -- | Low -- °F
Precip. -- in
Pressure 30.07 in
Visibility 9.0 miles
Clouds Mostly Cloudy 800 ft
Overcast 1300 ft
Dew Point 60 °F
Humidity 98%
Rainfall 0.09 in
Snow Depth Not available.
6:50 AM 6:37 PM
Waning Crescent, 0% visible
SPECI KMTO 301500Z AUTO 01010KT 9SM -RA BKN008 OVC013 16/14 A3007 RMK AO2 RAB00 CIG 005V011 P0000 T01610144
Pressure 30.07 in
Visibility 9.0 miles
Clouds Mostly Cloudy 800 ft
Overcast 1300 ft
Dew Point 60 °F
Humidity 98%
Rainfall 0.09 in
Snow Depth Not available.
6:50 AM 6:37 PM
Waning Crescent, 0% visible
SPECI KMTO 301500Z AUTO 01010KT 9SM -RA BKN008 OVC013 16/14 A3007 RMK AO2 RAB00 CIG 005V011 P0000 T01610144

10-Day Weather Forecast

Almanac

Astronomy

Sep. 30, 2016 Rise Set
Actual Time
Civil Twilight
Nautical Twilight
Astronomical Twilight
Moon
Length of Visible Light
Length of Day
Tomorrow will be .
, % of the Moon is Illuminated

Today's Extremes

State Highs State Lows

Community

WunderPhotos

Upload Photos

1,942,736 photos uploaded!

WunderBlog® & News

Nearby

Air Quality

  Air Quality AQ Index Pollutant
Not available.

Snow Depth

Station Depth Elevation

Earthquake Activity

City Distance Mag. Time & Date
Minimum magnitude displayed is 2.5.

Coastal Water Temperatures

Place Temperature

Stations

Nearby Weather Stations

Station Location Temp. Windchill Dew Point Humidity Wind Precip. Elev Updated Type
                   

Watches & Warnings

There are currently no watches in effect.